KCWA

Central Wisconsin Airport

Mosinee, Wisconsin, USA
KCWA 151136Z 1512/1612 16007KT P6SM SKC FM151600 18010G16KT P6SM SCT250 FM152100 19007KT P6SM BKN100 FM160400 26006KT 3SM -SHSN BKN025 FM160700 25006KT 6SM -SHSN BKN015
Issued Valid From Valid To
Nov-15 @ 11:36 UTC
(an hour ago)
Nov-15 @ 12:00 UTC
(43 minutes ago)
Nov-16 @ 12:00 UTC
(in 23 hours)
Nov-15 @ 12:00 to Nov-15 @ 16:00
KCWA 151136Z 1512/1612 16007KT P6SM SKC
Wind Visibility Clouds
160° at 7 knots Greater than 6 miles
  • Clear skies
From Nov-15 @ 16:00 to Nov-15 @ 21:00
FM151600 18010G16KT P6SM SCT250
Wind Visibility Clouds
180° at 10 knots
 Gusting to 16 knots
Greater than 6 miles
  • Scattered at 25,000' AGL
From Nov-15 @ 21:00 to Nov-16 @ 04:00
FM152100 19007KT P6SM BKN100
Wind Visibility Clouds
190° at 7 knots Greater than 6 miles
  • Broken at 10,000' AGL
From Nov-16 @ 04:00 to Nov-16 @ 07:00
FM160400 26006KT 3SM -SHSN BKN025
Wind Visibility Clouds Conditions
260° at 6 knots 3 miles
  • Broken at 2,500' AGL
  • Light Snow
From Nov-16 @ 07:00 to Nov-16 @ 12:00
FM160700 25006KT 6SM -SHSN BKN015
Wind Visibility Clouds Conditions
250° at 6 knots 6 miles
  • Broken at 1,500' AGL
  • Light Snow
KCWA 151136Z 1512/1612 16007KT P6SM SKC FM151600 18010G16KT P6SM SCT250 FM152100 19007KT P6SM BKN100 FM160400 26006KT 3SM -SHSN BKN025 FM160700 25006KT 6SM -SHSN BKN015
Issued Nov-15 @ 11:36 UTC
(an hour ago)
Valid From Nov-15 @ 12:00 UTC
(43 minutes ago)
Valid To Nov-16 @ 12:00 UTC
(in 23 hours)
Nov-15 @ 12:00 - Nov-15 @ 16:00
Wind Visibility
160° at 7 knots Greater than 6 miles
Clouds
  • Clear skies
From Nov-15 @ 16:00 - Nov-15 @ 21:00
Wind Visibility
180° at 10 knots
 Gusting to 16 knots
Greater than 6 miles
Clouds
  • Scattered at 25,000' AGL
From Nov-15 @ 21:00 - Nov-16 @ 04:00
Wind Visibility
190° at 7 knots Greater than 6 miles
Clouds
  • Broken at 10,000' AGL
From Nov-16 @ 04:00 - Nov-16 @ 07:00
Wind Visibility
260° at 6 knots 3 miles
Clouds
  • Broken at 2,500' AGL
Conditions
  • Light Snow
From Nov-16 @ 07:00 - Nov-16 @ 12:00
Wind Visibility
250° at 6 knots 6 miles
Clouds
  • Broken at 1,500' AGL
Conditions
  • Light Snow